International Virtual Aviation Organisation

Russian Federation and Kazakhstan MCD

 
USCC 281300Z 31003MPS 4300 BR NSC M14/M15 Q1039 R27/450342 NOSIG RMK QFE759
QNH:(hPa/inHg/mmHg)1039 / 30.68 / 779
QFE:(hPa/inHg/mmHg)1011 / 29.84 / 758
Temperature-14
Dew Point-15
Visibility4300
WeatherMist
Cloud Cover
Transition Altitude1500 ft.
Transition LevelFL30
SQUAWK